sensor_id;sensor_type;location;lat;lon;timestamp;P1;durP1;ratioP1;P2;durP2;ratioP2
4957;SDS011;2494;51.872;9.688;2024-03-17T00:02:40;2.87;;;2.60;;
4957;SDS011;2494;51.872;9.688;2024-03-17T00:05:25;2.23;;;2.10;;
4957;SDS011;2494;51.872;9.688;2024-03-17T00:08:09;2.87;;;2.60;;
4957;SDS011;2494;51.872;9.688;2024-03-17T00:10:55;2.77;;;2.10;;
4957;SDS011;2494;51.872;9.688;2024-03-17T00:13:39;4.83;;;2.70;;
4957;SDS011;2494;51.872;9.688;2024-03-17T00:16:24;4.50;;;2.87;;
4957;SDS011;2494;51.872;9.688;2024-03-17T00:19:08;5.23;;;2.30;;
4957;SDS011;2494;51.872;9.688;2024-03-17T00:21:54;4.70;;;2.17;;
4957;SDS011;2494;51.872;9.688;2024-03-17T00:24:38;6.90;;;2.50;;
4957;SDS011;2494;51.872;9.688;2024-03-17T00:27:24;3.10;;;2.80;;
4957;SDS011;2494;51.872;9.688;2024-03-17T00:30:08;6.03;;;3.00;;
4957;SDS011;2494;51.872;9.688;2024-03-17T00:32:56;2.80;;;2.60;;
4957;SDS011;2494;51.872;9.688;2024-03-17T00:35:42;2.83;;;2.53;;
4957;SDS011;2494;51.872;9.688;2024-03-17T00:38:27;3.00;;;2.10;;
4957;SDS011;2494;51.872;9.688;2024-03-17T00:41:10;2.23;;;2.03;;
4957;SDS011;2494;51.872;9.688;2024-03-17T00:43:57;2.67;;;2.40;;
4957;SDS011;2494;51.872;9.688;2024-03-17T00:46:41;3.20;;;2.10;;
4957;SDS011;2494;51.872;9.688;2024-03-17T00:49:26;2.20;;;1.80;;
4957;SDS011;2494;51.872;9.688;2024-03-17T00:52:10;5.20;;;2.20;;
4957;SDS011;2494;51.872;9.688;2024-03-17T00:54:54;2.40;;;2.17;;
4957;SDS011;2494;51.872;9.688;2024-03-17T00:57:39;4.00;;;2.53;;
4957;SDS011;2494;51.872;9.688;2024-03-17T01:00:25;4.17;;;2.63;;
4957;SDS011;2494;51.872;9.688;2024-03-17T01:03:10;2.30;;;1.90;;
4957;SDS011;2494;51.872;9.688;2024-03-17T01:05:55;3.73;;;2.77;;
4957;SDS011;2494;51.872;9.688;2024-03-17T01:08:39;2.50;;;1.67;;
4957;SDS011;2494;51.872;9.688;2024-03-17T01:11:24;3.83;;;2.10;;
4957;SDS011;2494;51.872;9.688;2024-03-17T01:14:08;2.20;;;2.00;;
4957;SDS011;2494;51.872;9.688;2024-03-17T01:16:55;2.50;;;2.30;;
4957;SDS011;2494;51.872;9.688;2024-03-17T01:19:40;3.10;;;2.70;;
4957;SDS011;2494;51.872;9.688;2024-03-17T01:22:24;2.83;;;2.53;;
4957;SDS011;2494;51.872;9.688;2024-03-17T01:25:09;4.00;;;3.20;;
4957;SDS011;2494;51.872;9.688;2024-03-17T01:27:54;3.83;;;2.60;;
4957;SDS011;2494;51.872;9.688;2024-03-17T01:30:38;3.73;;;3.27;;
4957;SDS011;2494;51.872;9.688;2024-03-17T01:33:24;3.50;;;3.20;;
4957;SDS011;2494;51.872;9.688;2024-03-17T01:36:09;5.83;;;2.40;;
4957;SDS011;2494;51.872;9.688;2024-03-17T01:38:53;3.07;;;2.03;;
4957;SDS011;2494;51.872;9.688;2024-03-17T01:41:38;4.27;;;2.23;;
4957;SDS011;2494;51.872;9.688;2024-03-17T01:44:24;3.50;;;2.20;;
4957;SDS011;2494;51.872;9.688;2024-03-17T01:47:10;3.10;;;2.30;;
4957;SDS011;2494;51.872;9.688;2024-03-17T01:49:56;2.80;;;2.60;;
4957;SDS011;2494;51.872;9.688;2024-03-17T01:52:40;2.20;;;2.00;;
4957;SDS011;2494;51.872;9.688;2024-03-17T01:55:26;2.40;;;2.20;;
4957;SDS011;2494;51.872;9.688;2024-03-17T01:58:10;2.40;;;2.20;;
4957;SDS011;2494;51.872;9.688;2024-03-17T02:00:56;3.50;;;1.87;;
4957;SDS011;2494;51.872;9.688;2024-03-17T02:03:42;5.20;;;2.53;;
4957;SDS011;2494;51.872;9.688;2024-03-17T02:06:27;4.00;;;2.20;;
4957;SDS011;2494;51.872;9.688;2024-03-17T02:09:12;2.70;;;2.43;;
4957;SDS011;2494;51.872;9.688;2024-03-17T02:11:56;4.23;;;1.70;;
4957;SDS011;2494;51.872;9.688;2024-03-17T02:14:41;3.37;;;1.80;;
4957;SDS011;2494;51.872;9.688;2024-03-17T02:17:25;1.83;;;1.63;;
4957;SDS011;2494;51.872;9.688;2024-03-17T02:20:11;4.50;;;1.43;;
4957;SDS011;2494;51.872;9.688;2024-03-17T02:22:56;12.30;;;2.00;;
4957;SDS011;2494;51.872;9.688;2024-03-17T02:25:42;1.47;;;1.37;;
4957;SDS011;2494;51.872;9.688;2024-03-17T02:28:29;4.07;;;1.77;;
4957;SDS011;2494;51.872;9.688;2024-03-17T02:31:21;12.00;;;2.10;;
4957;SDS011;2494;51.872;9.688;2024-03-17T02:34:07;2.87;;;1.90;;
4957;SDS011;2494;51.872;9.688;2024-03-17T02:36:51;3.77;;;1.63;;
4957;SDS011;2494;51.872;9.688;2024-03-17T02:39:37;1.60;;;1.50;;
4957;SDS011;2494;51.872;9.688;2024-03-17T02:42:22;4.13;;;1.87;;
4957;SDS011;2494;51.872;9.688;2024-03-17T02:45:07;3.57;;;2.07;;
4957;SDS011;2494;51.872;9.688;2024-03-17T02:47:53;1.87;;;1.77;;
4957;SDS011;2494;51.872;9.688;2024-03-17T02:50:39;2.80;;;1.80;;
4957;SDS011;2494;51.872;9.688;2024-03-17T02:53:23;6.37;;;1.60;;
4957;SDS011;2494;51.872;9.688;2024-03-17T02:56:10;7.50;;;2.00;;
4957;SDS011;2494;51.872;9.688;2024-03-17T02:58:55;4.70;;;1.80;;
4957;SDS011;2494;51.872;9.688;2024-03-17T03:01:40;2.77;;;1.50;;
4957;SDS011;2494;51.872;9.688;2024-03-17T03:04:26;4.60;;;1.90;;
4957;SDS011;2494;51.872;9.688;2024-03-17T03:07:11;2.53;;;2.00;;
4957;SDS011;2494;51.872;9.688;2024-03-17T03:09:56;2.20;;;1.77;;
4957;SDS011;2494;51.872;9.688;2024-03-17T03:12:42;1.63;;;1.53;;
4957;SDS011;2494;51.872;9.688;2024-03-17T03:15:30;2.30;;;2.10;;
4957;SDS011;2494;51.872;9.688;2024-03-17T03:18:15;3.90;;;1.97;;
4957;SDS011;2494;51.872;9.688;2024-03-17T03:21:00;1.73;;;1.53;;
4957;SDS011;2494;51.872;9.688;2024-03-17T03:23:45;1.90;;;1.50;;
4957;SDS011;2494;51.872;9.688;2024-03-17T03:26:31;3.47;;;2.00;;
4957;SDS011;2494;51.872;9.688;2024-03-17T03:29:18;2.00;;;1.80;;
4957;SDS011;2494;51.872;9.688;2024-03-17T03:32:03;1.73;;;1.60;;
4957;SDS011;2494;51.872;9.688;2024-03-17T03:34:49;2.60;;;1.47;;
4957;SDS011;2494;51.872;9.688;2024-03-17T03:37:33;1.77;;;1.40;;
4957;SDS011;2494;51.872;9.688;2024-03-17T03:40:19;2.77;;;1.50;;
4957;SDS011;2494;51.872;9.688;2024-03-17T03:43:04;3.60;;;1.80;;
4957;SDS011;2494;51.872;9.688;2024-03-17T03:45:51;1.80;;;1.70;;
4957;SDS011;2494;51.872;9.688;2024-03-17T03:48:36;2.70;;;1.50;;
4957;SDS011;2494;51.872;9.688;2024-03-17T03:51:21;2.17;;;1.20;;
4957;SDS011;2494;51.872;9.688;2024-03-17T03:54:07;5.13;;;1.70;;
4957;SDS011;2494;51.872;9.688;2024-03-17T03:56:51;4.53;;;1.67;;
4957;SDS011;2494;51.872;9.688;2024-03-17T03:59:37;3.17;;;1.50;;
4957;SDS011;2494;51.872;9.688;2024-03-17T04:02:24;1.93;;;1.37;;
4957;SDS011;2494;51.872;9.688;2024-03-17T04:05:15;1.70;;;1.40;;
4957;SDS011;2494;51.872;9.688;2024-03-17T04:08:00;2.77;;;1.73;;
4957;SDS011;2494;51.872;9.688;2024-03-17T04:10:45;2.50;;;1.87;;
4957;SDS011;2494;51.872;9.688;2024-03-17T04:13:30;1.20;;;1.10;;
4957;SDS011;2494;51.872;9.688;2024-03-17T04:16:17;3.73;;;1.60;;
4957;SDS011;2494;51.872;9.688;2024-03-17T04:19:03;1.83;;;1.60;;
4957;SDS011;2494;51.872;9.688;2024-03-17T04:21:48;2.93;;;1.80;;
4957;SDS011;2494;51.872;9.688;2024-03-17T04:24:33;3.10;;;2.70;;
4957;SDS011;2494;51.872;9.688;2024-03-17T04:27:18;3.13;;;1.43;;
4957;SDS011;2494;51.872;9.688;2024-03-17T04:30:03;1.60;;;1.43;;
4957;SDS011;2494;51.872;9.688;2024-03-17T04:32:49;3.23;;;2.00;;
4957;SDS011;2494;51.872;9.688;2024-03-17T04:35:37;6.00;;;1.77;;
4957;SDS011;2494;51.872;9.688;2024-03-17T04:38:22;1.70;;;1.33;;
4957;SDS011;2494;51.872;9.688;2024-03-17T04:41:07;6.17;;;2.40;;
4957;SDS011;2494;51.872;9.688;2024-03-17T04:43:53;1.60;;;1.47;;
4957;SDS011;2494;51.872;9.688;2024-03-17T04:46:38;9.50;;;1.80;;
4957;SDS011;2494;51.872;9.688;2024-03-17T04:49:24;3.50;;;1.70;;
4957;SDS011;2494;51.872;9.688;2024-03-17T04:52:13;2.70;;;2.50;;
4957;SDS011;2494;51.872;9.688;2024-03-17T04:55:00;1.93;;;1.50;;
4957;SDS011;2494;51.872;9.688;2024-03-17T04:57:44;5.33;;;2.00;;
4957;SDS011;2494;51.872;9.688;2024-03-17T05:00:30;2.93;;;2.03;;
4957;SDS011;2494;51.872;9.688;2024-03-17T05:03:14;1.97;;;1.67;;
4957;SDS011;2494;51.872;9.688;2024-03-17T05:06:00;2.67;;;1.60;;
4957;SDS011;2494;51.872;9.688;2024-03-17T05:08:47;3.50;;;1.60;;
4957;SDS011;2494;51.872;9.688;2024-03-17T05:11:31;4.07;;;2.10;;
4957;SDS011;2494;51.872;9.688;2024-03-17T05:14:19;3.57;;;1.97;;
4957;SDS011;2494;51.872;9.688;2024-03-17T05:17:04;15.00;;;1.97;;
4957;SDS011;2494;51.872;9.688;2024-03-17T05:19:49;3.10;;;2.20;;
4957;SDS011;2494;51.872;9.688;2024-03-17T05:22:34;2.97;;;2.30;;
4957;SDS011;2494;51.872;9.688;2024-03-17T05:25:20;2.27;;;2.00;;
4957;SDS011;2494;51.872;9.688;2024-03-17T05:28:05;5.23;;;2.80;;
4957;SDS011;2494;51.872;9.688;2024-03-17T05:30:50;7.23;;;3.00;;
4957;SDS011;2494;51.872;9.688;2024-03-17T05:33:36;4.00;;;2.37;;
4957;SDS011;2494;51.872;9.688;2024-03-17T05:36:21;3.33;;;2.23;;
4957;SDS011;2494;51.872;9.688;2024-03-17T05:39:06;6.00;;;2.70;;
4957;SDS011;2494;51.872;9.688;2024-03-17T05:41:53;3.20;;;2.53;;
4957;SDS011;2494;51.872;9.688;2024-03-17T05:44:38;2.33;;;2.13;;
4957;SDS011;2494;51.872;9.688;2024-03-17T05:47:33;2.80;;;2.60;;
4957;SDS011;2494;51.872;9.688;2024-03-17T05:50:18;5.70;;;2.90;;
4957;SDS011;2494;51.872;9.688;2024-03-17T05:53:03;6.40;;;3.00;;
4957;SDS011;2494;51.872;9.688;2024-03-17T05:55:48;6.77;;;4.23;;
4957;SDS011;2494;51.872;9.688;2024-03-17T05:58:35;3.30;;;3.00;;
4957;SDS011;2494;51.872;9.688;2024-03-17T06:01:21;4.20;;;2.80;;
4957;SDS011;2494;51.872;9.688;2024-03-17T06:04:06;3.87;;;3.57;;
4957;SDS011;2494;51.872;9.688;2024-03-17T06:06:51;2.37;;;1.70;;
4957;SDS011;2494;51.872;9.688;2024-03-17T06:09:36;2.77;;;2.33;;
4957;SDS011;2494;51.872;9.688;2024-03-17T06:12:21;3.67;;;2.20;;
4957;SDS011;2494;51.872;9.688;2024-03-17T06:15:08;6.10;;;2.67;;
4957;SDS011;2494;51.872;9.688;2024-03-17T06:17:53;2.40;;;2.20;;
4957;SDS011;2494;51.872;9.688;2024-03-17T06:20:39;3.90;;;2.20;;
4957;SDS011;2494;51.872;9.688;2024-03-17T06:23:25;3.33;;;2.10;;
4957;SDS011;2494;51.872;9.688;2024-03-17T06:26:12;2.87;;;1.87;;
4957;SDS011;2494;51.872;9.688;2024-03-17T06:28:57;3.07;;;2.87;;
4957;SDS011;2494;51.872;9.688;2024-03-17T06:31:43;5.87;;;2.23;;
4957;SDS011;2494;51.872;9.688;2024-03-17T06:34:30;2.73;;;2.30;;
4957;SDS011;2494;51.872;9.688;2024-03-17T06:37:15;5.60;;;2.80;;
4957;SDS011;2494;51.872;9.688;2024-03-17T06:40:00;3.57;;;3.27;;
4957;SDS011;2494;51.872;9.688;2024-03-17T06:42:46;6.53;;;2.60;;
4957;SDS011;2494;51.872;9.688;2024-03-17T06:45:31;4.30;;;2.83;;
4957;SDS011;2494;51.872;9.688;2024-03-17T06:48:18;6.13;;;2.90;;
4957;SDS011;2494;51.872;9.688;2024-03-17T06:51:04;3.83;;;2.80;;
4957;SDS011;2494;51.872;9.688;2024-03-17T06:53:49;6.13;;;4.13;;
4957;SDS011;2494;51.872;9.688;2024-03-17T06:56:34;4.20;;;3.43;;
4957;SDS011;2494;51.872;9.688;2024-03-17T06:59:20;3.53;;;3.30;;
4957;SDS011;2494;51.872;9.688;2024-03-17T07:02:05;10.43;;;3.80;;
4957;SDS011;2494;51.872;9.688;2024-03-17T07:04:53;3.70;;;3.40;;
4957;SDS011;2494;51.872;9.688;2024-03-17T07:07:38;5.43;;;2.73;;
4957;SDS011;2494;51.872;9.688;2024-03-17T07:10:23;2.77;;;2.57;;
4957;SDS011;2494;51.872;9.688;2024-03-17T07:13:10;3.70;;;3.13;;
4957;SDS011;2494;51.872;9.688;2024-03-17T07:15:55;2.60;;;2.40;;
4957;SDS011;2494;51.872;9.688;2024-03-17T07:18:40;3.10;;;2.30;;
4957;SDS011;2494;51.872;9.688;2024-03-17T07:21:29;2.80;;;2.40;;
4957;SDS011;2494;51.872;9.688;2024-03-17T07:24:14;3.50;;;2.33;;
4957;SDS011;2494;51.872;9.688;2024-03-17T07:26:58;3.60;;;2.47;;
4957;SDS011;2494;51.872;9.688;2024-03-17T07:29:43;3.40;;;3.10;;
4957;SDS011;2494;51.872;9.688;2024-03-17T07:32:28;5.77;;;3.03;;
4957;SDS011;2494;51.872;9.688;2024-03-17T07:35:13;2.47;;;2.03;;
4957;SDS011;2494;51.872;9.688;2024-03-17T07:38:00;2.97;;;2.67;;
4957;SDS011;2494;51.872;9.688;2024-03-17T07:40:45;7.03;;;3.10;;
4957;SDS011;2494;51.872;9.688;2024-03-17T07:43:39;6.80;;;2.83;;
4957;SDS011;2494;51.872;9.688;2024-03-17T07:46:24;6.60;;;2.23;;
4957;SDS011;2494;51.872;9.688;2024-03-17T07:49:09;2.30;;;2.10;;
4957;SDS011;2494;51.872;9.688;2024-03-17T07:51:56;2.83;;;2.20;;
4957;SDS011;2494;51.872;9.688;2024-03-17T07:54:42;3.40;;;2.93;;
4957;SDS011;2494;51.872;9.688;2024-03-17T07:57:30;3.10;;;2.53;;
4957;SDS011;2494;51.872;9.688;2024-03-17T08:00:15;3.60;;;2.33;;
4957;SDS011;2494;51.872;9.688;2024-03-17T08:03:00;4.23;;;2.73;;
4957;SDS011;2494;51.872;9.688;2024-03-17T08:05:47;4.07;;;2.80;;
4957;SDS011;2494;51.872;9.688;2024-03-17T08:08:33;5.50;;;3.33;;
4957;SDS011;2494;51.872;9.688;2024-03-17T08:11:20;6.33;;;2.50;;
4957;SDS011;2494;51.872;9.688;2024-03-17T08:14:05;4.87;;;2.93;;
4957;SDS011;2494;51.872;9.688;2024-03-17T08:16:51;7.90;;;3.70;;
4957;SDS011;2494;51.872;9.688;2024-03-17T08:19:35;4.57;;;3.27;;
4957;SDS011;2494;51.872;9.688;2024-03-17T08:22:23;3.50;;;3.20;;
4957;SDS011;2494;51.872;9.688;2024-03-17T08:25:08;4.00;;;2.50;;
4957;SDS011;2494;51.872;9.688;2024-03-17T08:27:54;4.10;;;3.03;;
4957;SDS011;2494;51.872;9.688;2024-03-17T08:30:40;7.73;;;3.07;;
4957;SDS011;2494;51.872;9.688;2024-03-17T08:33:25;3.73;;;2.53;;
4957;SDS011;2494;51.872;9.688;2024-03-17T08:36:11;3.27;;;2.73;;
4957;SDS011;2494;51.872;9.688;2024-03-17T08:38:56;4.70;;;3.53;;
4957;SDS011;2494;51.872;9.688;2024-03-17T08:41:42;6.10;;;3.00;;
4957;SDS011;2494;51.872;9.688;2024-03-17T08:44:29;3.57;;;3.27;;
4957;SDS011;2494;51.872;9.688;2024-03-17T08:47:14;5.10;;;2.80;;
4957;SDS011;2494;51.872;9.688;2024-03-17T08:49:59;3.50;;;3.10;;
4957;SDS011;2494;51.872;9.688;2024-03-17T08:52:47;3.90;;;3.60;;
4957;SDS011;2494;51.872;9.688;2024-03-17T08:55:34;3.43;;;3.00;;
4957;SDS011;2494;51.872;9.688;2024-03-17T08:58:19;4.47;;;3.23;;
4957;SDS011;2494;51.872;9.688;2024-03-17T09:01:06;7.37;;;4.30;;
4957;SDS011;2494;51.872;9.688;2024-03-17T09:03:52;3.80;;;3.50;;
4957;SDS011;2494;51.872;9.688;2024-03-17T09:06:40;4.40;;;3.33;;
4957;SDS011;2494;51.872;9.688;2024-03-17T09:09:25;4.77;;;3.77;;
4957;SDS011;2494;51.872;9.688;2024-03-17T09:12:11;4.77;;;3.13;;
4957;SDS011;2494;51.872;9.688;2024-03-17T09:14:56;7.00;;;4.03;;
4957;SDS011;2494;51.872;9.688;2024-03-17T09:17:42;5.40;;;3.90;;
4957;SDS011;2494;51.872;9.688;2024-03-17T09:20:28;3.60;;;3.30;;
4957;SDS011;2494;51.872;9.688;2024-03-17T09:23:13;6.43;;;3.60;;
4957;SDS011;2494;51.872;9.688;2024-03-17T09:25:59;3.97;;;3.63;;
4957;SDS011;2494;51.872;9.688;2024-03-17T09:28:44;4.00;;;3.40;;
4957;SDS011;2494;51.872;9.688;2024-03-17T09:31:29;4.83;;;3.67;;
4957;SDS011;2494;51.872;9.688;2024-03-17T09:34:18;4.40;;;3.70;;
4957;SDS011;2494;51.872;9.688;2024-03-17T09:37:03;3.50;;;3.20;;
4957;SDS011;2494;51.872;9.688;2024-03-17T09:39:48;6.20;;;3.50;;
4957;SDS011;2494;51.872;9.688;2024-03-17T09:42:35;5.10;;;3.77;;
4957;SDS011;2494;51.872;9.688;2024-03-17T09:45:20;3.47;;;3.17;;
4957;SDS011;2494;51.872;9.688;2024-03-17T09:48:06;4.10;;;3.80;;
4957;SDS011;2494;51.872;9.688;2024-03-17T09:50:53;5.00;;;3.60;;
4957;SDS011;2494;51.872;9.688;2024-03-17T09:53:38;7.20;;;3.80;;
4957;SDS011;2494;51.872;9.688;2024-03-17T09:56:23;4.40;;;4.00;;
4957;SDS011;2494;51.872;9.688;2024-03-17T09:59:09;3.70;;;3.40;;
4957;SDS011;2494;51.872;9.688;2024-03-17T10:01:54;4.90;;;4.37;;
4957;SDS011;2494;51.872;9.688;2024-03-17T10:04:39;6.13;;;4.03;;
4957;SDS011;2494;51.872;9.688;2024-03-17T10:07:33;5.67;;;4.77;;
4957;SDS011;2494;51.872;9.688;2024-03-17T10:10:22;4.10;;;3.37;;
4957;SDS011;2494;51.872;9.688;2024-03-17T10:13:07;10.43;;;4.20;;
4957;SDS011;2494;51.872;9.688;2024-03-17T10:15:56;4.30;;;3.73;;
4957;SDS011;2494;51.872;9.688;2024-03-17T10:18:41;6.07;;;4.73;;
4957;SDS011;2494;51.872;9.688;2024-03-17T10:21:26;8.67;;;4.60;;
4957;SDS011;2494;51.872;9.688;2024-03-17T10:24:14;5.60;;;5.07;;
4957;SDS011;2494;51.872;9.688;2024-03-17T10:27:04;5.20;;;4.13;;
4957;SDS011;2494;51.872;9.688;2024-03-17T10:29:49;4.80;;;4.37;;
4957;SDS011;2494;51.872;9.688;2024-03-17T10:32:34;4.40;;;3.90;;
4957;SDS011;2494;51.872;9.688;2024-03-17T10:35:25;5.20;;;4.70;;
4957;SDS011;2494;51.872;9.688;2024-03-17T10:38:11;6.00;;;5.10;;
4957;SDS011;2494;51.872;9.688;2024-03-17T10:40:58;8.50;;;4.77;;
4957;SDS011;2494;51.872;9.688;2024-03-17T10:43:44;5.60;;;5.00;;
4957;SDS011;2494;51.872;9.688;2024-03-17T10:46:28;7.07;;;5.33;;
4957;SDS011;2494;51.872;9.688;2024-03-17T10:49:13;10.73;;;5.27;;
4957;SDS011;2494;51.872;9.688;2024-03-17T10:52:00;8.03;;;5.40;;
4957;SDS011;2494;51.872;9.688;2024-03-17T10:54:47;6.10;;;4.67;;
4957;SDS011;2494;51.872;9.688;2024-03-17T10:57:36;5.77;;;5.27;;
4957;SDS011;2494;51.872;9.688;2024-03-17T11:00:23;9.60;;;7.13;;
4957;SDS011;2494;51.872;9.688;2024-03-17T11:03:09;7.37;;;6.60;;
4957;SDS011;2494;51.872;9.688;2024-03-17T11:05:55;8.97;;;5.73;;
4957;SDS011;2494;51.872;9.688;2024-03-17T11:08:41;11.37;;;7.10;;
4957;SDS011;2494;51.872;9.688;2024-03-17T11:11:36;8.57;;;6.80;;
4957;SDS011;2494;51.872;9.688;2024-03-17T11:14:24;12.80;;;7.53;;
4957;SDS011;2494;51.872;9.688;2024-03-17T11:17:16;10.03;;;7.40;;
4957;SDS011;2494;51.872;9.688;2024-03-17T11:20:08;7.67;;;6.67;;
4957;SDS011;2494;51.872;9.688;2024-03-17T11:22:54;7.87;;;6.37;;
4957;SDS011;2494;51.872;9.688;2024-03-17T11:25:39;6.63;;;5.93;;
4957;SDS011;2494;51.872;9.688;2024-03-17T11:31:33;9.13;;;6.17;;
4957;SDS011;2494;51.872;9.688;2024-03-17T11:34:27;10.20;;;7.90;;
4957;SDS011;2494;51.872;9.688;2024-03-17T11:40:23;6.73;;;5.97;;
4957;SDS011;2494;51.872;9.688;2024-03-17T11:43:07;10.70;;;7.27;;
4957;SDS011;2494;51.872;9.688;2024-03-17T11:45:58;10.13;;;6.70;;
4957;SDS011;2494;51.872;9.688;2024-03-17T11:48:44;11.53;;;7.40;;
4957;SDS011;2494;51.872;9.688;2024-03-17T11:51:29;10.40;;;7.37;;
4957;SDS011;2494;51.872;9.688;2024-03-17T11:54:14;6.70;;;5.93;;
4957;SDS011;2494;51.872;9.688;2024-03-17T11:57:01;14.33;;;8.53;;
4957;SDS011;2494;51.872;9.688;2024-03-17T11:59:47;12.50;;;7.10;;
4957;SDS011;2494;51.872;9.688;2024-03-17T12:02:31;6.80;;;6.10;;
4957;SDS011;2494;51.872;9.688;2024-03-17T12:05:18;10.37;;;6.80;;
4957;SDS011;2494;51.872;9.688;2024-03-17T12:08:02;9.30;;;6.23;;
4957;SDS011;2494;51.872;9.688;2024-03-17T12:10:47;10.23;;;6.10;;
4957;SDS011;2494;51.872;9.688;2024-03-17T12:13:32;13.50;;;6.67;;
4957;SDS011;2494;51.872;9.688;2024-03-17T12:16:17;16.20;;;6.83;;
4957;SDS011;2494;51.872;9.688;2024-03-17T12:19:05;9.67;;;6.27;;
4957;SDS011;2494;51.872;9.688;2024-03-17T12:21:52;8.40;;;5.60;;
4957;SDS011;2494;51.872;9.688;2024-03-17T12:24:37;8.20;;;7.50;;
4957;SDS011;2494;51.872;9.688;2024-03-17T12:27:23;8.07;;;6.70;;
4957;SDS011;2494;51.872;9.688;2024-03-17T12:30:15;7.73;;;7.00;;
4957;SDS011;2494;51.872;9.688;2024-03-17T12:33:01;8.40;;;7.60;;
4957;SDS011;2494;51.872;9.688;2024-03-17T12:35:45;13.70;;;7.27;;
4957;SDS011;2494;51.872;9.688;2024-03-17T12:38:30;11.00;;;8.37;;
4957;SDS011;2494;51.872;9.688;2024-03-17T12:41:16;12.47;;;7.83;;
4957;SDS011;2494;51.872;9.688;2024-03-17T12:44:01;9.40;;;7.23;;
4957;SDS011;2494;51.872;9.688;2024-03-17T12:46:46;7.83;;;7.10;;
4957;SDS011;2494;51.872;9.688;2024-03-17T12:49:31;12.50;;;7.60;;
4957;SDS011;2494;51.872;9.688;2024-03-17T12:52:18;10.27;;;7.43;;
4957;SDS011;2494;51.872;9.688;2024-03-17T12:55:03;10.13;;;7.23;;
4957;SDS011;2494;51.872;9.688;2024-03-17T12:58:06;11.53;;;7.57;;
4957;SDS011;2494;51.872;9.688;2024-03-17T13:01:11;12.00;;;7.87;;
4957;SDS011;2494;51.872;9.688;2024-03-17T13:04:05;7.83;;;6.30;;
4957;SDS011;2494;51.872;9.688;2024-03-17T13:06:51;11.13;;;8.83;;
4957;SDS011;2494;51.872;9.688;2024-03-17T13:09:38;14.80;;;6.30;;
4957;SDS011;2494;51.872;9.688;2024-03-17T13:12:23;11.73;;;7.30;;
4957;SDS011;2494;51.872;9.688;2024-03-17T13:15:09;9.80;;;8.77;;
4957;SDS011;2494;51.872;9.688;2024-03-17T13:17:55;9.97;;;8.23;;
4957;SDS011;2494;51.872;9.688;2024-03-17T13:20:41;14.00;;;9.30;;
4957;SDS011;2494;51.872;9.688;2024-03-17T13:23:26;10.50;;;7.77;;
4957;SDS011;2494;51.872;9.688;2024-03-17T13:26:13;8.90;;;7.80;;
4957;SDS011;2494;51.872;9.688;2024-03-17T13:28:58;9.77;;;7.37;;
4957;SDS011;2494;51.872;9.688;2024-03-17T13:31:43;12.73;;;7.90;;
4957;SDS011;2494;51.872;9.688;2024-03-17T13:34:28;10.50;;;7.77;;
4957;SDS011;2494;51.872;9.688;2024-03-17T13:37:14;9.80;;;6.70;;
4957;SDS011;2494;51.872;9.688;2024-03-17T13:39:59;13.30;;;9.13;;
4957;SDS011;2494;51.872;9.688;2024-03-17T13:42:47;11.03;;;7.30;;
4957;SDS011;2494;51.872;9.688;2024-03-17T13:45:37;12.40;;;8.20;;
4957;SDS011;2494;51.872;9.688;2024-03-17T13:48:22;11.87;;;7.70;;
4957;SDS011;2494;51.872;9.688;2024-03-17T13:51:07;12.47;;;8.30;;
4957;SDS011;2494;51.872;9.688;2024-03-17T13:53:54;9.50;;;8.03;;
4957;SDS011;2494;51.872;9.688;2024-03-17T13:56:39;10.23;;;7.80;;
4957;SDS011;2494;51.872;9.688;2024-03-17T13:59:24;9.90;;;8.53;;
4957;SDS011;2494;51.872;9.688;2024-03-17T14:02:11;9.97;;;7.87;;
4957;SDS011;2494;51.872;9.688;2024-03-17T14:04:56;10.30;;;7.70;;
4957;SDS011;2494;51.872;9.688;2024-03-17T14:07:42;8.87;;;7.40;;
4957;SDS011;2494;51.872;9.688;2024-03-17T14:10:29;10.10;;;8.97;;
4957;SDS011;2494;51.872;9.688;2024-03-17T14:13:15;10.57;;;7.70;;
4957;SDS011;2494;51.872;9.688;2024-03-17T14:15:59;8.63;;;7.73;;
4957;SDS011;2494;51.872;9.688;2024-03-17T14:18:45;11.97;;;7.50;;
4957;SDS011;2494;51.872;9.688;2024-03-17T14:21:30;12.73;;;8.20;;
4957;SDS011;2494;51.872;9.688;2024-03-17T14:24:15;8.40;;;7.40;;
4957;SDS011;2494;51.872;9.688;2024-03-17T14:27:01;9.07;;;7.87;;
4957;SDS011;2494;51.872;9.688;2024-03-17T14:29:47;9.63;;;7.57;;
4957;SDS011;2494;51.872;9.688;2024-03-17T14:32:32;7.80;;;7.00;;
4957;SDS011;2494;51.872;9.688;2024-03-17T14:35:18;8.80;;;7.53;;
4957;SDS011;2494;51.872;9.688;2024-03-17T14:38:04;9.40;;;7.57;;
4957;SDS011;2494;51.872;9.688;2024-03-17T14:40:50;11.37;;;7.00;;
4957;SDS011;2494;51.872;9.688;2024-03-17T14:43:37;12.60;;;7.93;;
4957;SDS011;2494;51.872;9.688;2024-03-17T14:46:23;17.73;;;7.00;;
4957;SDS011;2494;51.872;9.688;2024-03-17T14:49:08;10.53;;;7.87;;
4957;SDS011;2494;51.872;9.688;2024-03-17T14:51:53;9.00;;;7.90;;
4957;SDS011;2494;51.872;9.688;2024-03-17T14:54:40;13.60;;;7.93;;
4957;SDS011;2494;51.872;9.688;2024-03-17T14:57:26;8.43;;;6.93;;
4957;SDS011;2494;51.872;9.688;2024-03-17T15:00:13;11.40;;;7.80;;
4957;SDS011;2494;51.872;9.688;2024-03-17T15:03:00;7.60;;;6.70;;
4957;SDS011;2494;51.872;9.688;2024-03-17T15:05:44;12.60;;;7.90;;
4957;SDS011;2494;51.872;9.688;2024-03-17T15:08:29;9.20;;;6.97;;
4957;SDS011;2494;51.872;9.688;2024-03-17T15:11:14;10.17;;;8.27;;
4957;SDS011;2494;51.872;9.688;2024-03-17T15:14:02;9.63;;;7.80;;
4957;SDS011;2494;51.872;9.688;2024-03-17T15:16:49;10.37;;;7.00;;
4957;SDS011;2494;51.872;9.688;2024-03-17T15:19:34;15.30;;;9.13;;
4957;SDS011;2494;51.872;9.688;2024-03-17T15:22:25;8.30;;;7.50;;
4957;SDS011;2494;51.872;9.688;2024-03-17T15:25:10;10.80;;;7.33;;
4957;SDS011;2494;51.872;9.688;2024-03-17T15:27:55;7.80;;;7.07;;
4957;SDS011;2494;51.872;9.688;2024-03-17T15:30:42;10.50;;;7.77;;
4957;SDS011;2494;51.872;9.688;2024-03-17T15:33:29;8.33;;;7.47;;
4957;SDS011;2494;51.872;9.688;2024-03-17T15:36:14;9.97;;;7.33;;
4957;SDS011;2494;51.872;9.688;2024-03-17T15:38:59;8.97;;;7.53;;
4957;SDS011;2494;51.872;9.688;2024-03-17T15:41:45;8.87;;;7.97;;
4957;SDS011;2494;51.872;9.688;2024-03-17T15:44:31;9.53;;;7.60;;
4957;SDS011;2494;51.872;9.688;2024-03-17T15:47:16;10.80;;;8.13;;
4957;SDS011;2494;51.872;9.688;2024-03-17T15:50:02;12.03;;;7.50;;
4957;SDS011;2494;51.872;9.688;2024-03-17T15:52:47;11.83;;;7.67;;
4957;SDS011;2494;51.872;9.688;2024-03-17T15:55:32;10.93;;;8.17;;
4957;SDS011;2494;51.872;9.688;2024-03-17T15:58:17;10.37;;;9.03;;
4957;SDS011;2494;51.872;9.688;2024-03-17T16:01:05;10.73;;;7.93;;
4957;SDS011;2494;51.872;9.688;2024-03-17T16:03:50;14.20;;;8.80;;
4957;SDS011;2494;51.872;9.688;2024-03-17T16:06:37;9.50;;;7.80;;
4957;SDS011;2494;51.872;9.688;2024-03-17T16:09:23;9.87;;;7.50;;
4957;SDS011;2494;51.872;9.688;2024-03-17T16:12:08;14.73;;;8.77;;
4957;SDS011;2494;51.872;9.688;2024-03-17T16:14:54;12.60;;;9.00;;
4957;SDS011;2494;51.872;9.688;2024-03-17T16:17:44;12.00;;;9.40;;
4957;SDS011;2494;51.872;9.688;2024-03-17T16:23:42;20.07;;;12.10;;
4957;SDS011;2494;51.872;9.688;2024-03-17T16:26:28;11.00;;;9.80;;
4957;SDS011;2494;51.872;9.688;2024-03-17T16:29:14;10.43;;;7.93;;
4957;SDS011;2494;51.872;9.688;2024-03-17T16:31:59;10.43;;;8.20;;
4957;SDS011;2494;51.872;9.688;2024-03-17T16:34:44;8.67;;;7.87;;
4957;SDS011;2494;51.872;9.688;2024-03-17T16:37:29;9.47;;;7.80;;
4957;SDS011;2494;51.872;9.688;2024-03-17T16:40:16;8.70;;;6.93;;
4957;SDS011;2494;51.872;9.688;2024-03-17T16:43:01;9.60;;;8.27;;
4957;SDS011;2494;51.872;9.688;2024-03-17T16:45:47;11.47;;;8.67;;
4957;SDS011;2494;51.872;9.688;2024-03-17T16:48:35;10.33;;;8.60;;
4957;SDS011;2494;51.872;9.688;2024-03-17T16:51:20;10.43;;;8.60;;
4957;SDS011;2494;51.872;9.688;2024-03-17T16:54:05;12.33;;;9.50;;
4957;SDS011;2494;51.872;9.688;2024-03-17T16:56:52;14.97;;;10.07;;
4957;SDS011;2494;51.872;9.688;2024-03-17T16:59:38;11.13;;;8.40;;
4957;SDS011;2494;51.872;9.688;2024-03-17T17:02:22;9.43;;;7.90;;
4957;SDS011;2494;51.872;9.688;2024-03-17T17:05:07;9.10;;;7.67;;
4957;SDS011;2494;51.872;9.688;2024-03-17T17:07:56;11.10;;;8.60;;
4957;SDS011;2494;51.872;9.688;2024-03-17T17:10:41;10.17;;;8.50;;
4957;SDS011;2494;51.872;9.688;2024-03-17T17:13:27;13.93;;;8.10;;
4957;SDS011;2494;51.872;9.688;2024-03-17T17:16:13;10.30;;;8.23;;
4957;SDS011;2494;51.872;9.688;2024-03-17T17:18:58;20.33;;;7.83;;